Time,TemperatureF,DewpointF,PressureIn,WindDirection,WindDirectionDegrees,WindSpeedMPH,WindSpeedGustMPH,Humidity,HourlyPrecipIn,Conditions,Clouds,dailyrainin,SoftwareType,DateUTC
2013-01-14 00:00:00,47.7,46.3,30.00,SW,234,0.0,2.0,95,0.00,,---,0.01,VWS V14.01,2013-01-14 05:00:00,
2013-01-14 00:01:00,47.7,46.3,30.00,SW,234,0.0,2.0,95,0.00,,---,0.01,VWS V14.01,2013-01-14 05:01:00,
2013-01-14 00:02:00,47.7,46.3,29.99,SW,234,0.0,0.0,95,0.00,,---,0.00,VWS V14.01,2013-01-14 05:02:00,
2013-01-14 00:03:00,47.7,46.3,29.99,SW,234,2.0,3.0,95,0.00,,---,0.00,VWS V14.01,2013-01-14 05:03:00,
2013-01-14 00:09:00,47.7,46.3,29.99,SW,234,0.0,3.0,95,0.00,,---,0.00,VWS V14.01,2013-01-14 05:09:00,
2013-01-14 00:14:00,47.7,46.3,29.99,SW,230,0.0,3.0,95,0.00,,---,0.00,VWS V14.01,2013-01-14 05:14:00,
2013-01-14 00:15:00,47.8,46.4,29.99,SW,227,0.0,3.0,95,0.00,,---,0.00,VWS V14.01,2013-01-14 05:15:00,
2013-01-14 00:19:00,47.8,46.4,29.98,SW,227,0.0,0.0,95,0.00,,---,0.00,VWS V14.01,2013-01-14 05:19:00,
2013-01-14 00:24:00,47.8,46.4,29.99,SW,226,0.0,1.0,95,0.00,,---,0.00,VWS V14.01,2013-01-14 05:24:00,
2013-01-14 00:29:00,47.7,46.3,29.99,SW,226,0.0,1.0,95,0.00,,---,0.00,VWS V14.01,2013-01-14 05:29:00,
2013-01-14 00:30:00,47.6,46.2,29.99,SW,226,1.0,1.0,95,0.00,,---,0.00,VWS V14.01,2013-01-14 05:30:00,
2013-01-14 00:34:00,47.7,46.3,29.99,SW,226,0.0,3.0,95,0.00,,---,0.00,VWS V14.01,2013-01-14 05:34:00,
2013-01-14 00:39:00,47.7,46.3,29.99,SW,226,0.0,3.0,95,0.00,,---,0.00,VWS V14.01,2013-01-14 05:39:00,
2013-01-14 00:44:00,47.6,46.2,29.99,SW,226,0.0,3.0,95,0.00,,---,0.00,VWS V14.01,2013-01-14 05:44:00,
2013-01-14 00:45:00,47.6,46.2,29.99,SW,226,0.0,3.0,95,0.00,,---,0.00,VWS V14.01,2013-01-14 05:45:00,
2013-01-14 00:49:00,47.8,46.4,29.98,SSE,157,1.0,3.0,95,0.00,,---,0.00,VWS V14.01,2013-01-14 05:49:00,
2013-01-14 00:54:00,47.9,46.5,29.98,SSE,157,0.0,3.0,95,0.00,,---,0.00,VWS V14.01,2013-01-14 05:54:00,
2013-01-14 00:59:00,47.8,46.4,29.99,SSE,157,0.0,3.0,95,0.00,,---,0.00,VWS V14.01,2013-01-14 05:59:00,
2013-01-14 01:00:00,47.8,46.4,29.99,SSE,157,0.0,3.0,95,0.00,,---,0.00,VWS V14.01,2013-01-14 06:00:00,
2013-01-14 01:04:00,47.8,46.4,29.99,SSE,157,0.0,1.0,95,0.00,,---,0.00,VWS V14.01,2013-01-14 06:04:00,
2013-01-14 01:10:00,47.8,46.4,29.99,SSE,157,0.0,4.0,95,0.00,,---,0.00,VWS V14.01,2013-01-14 06:10:00,
2013-01-14 01:15:00,47.8,46.4,29.99,SSE,157,0.0,4.0,95,0.00,,---,0.00,VWS V14.01,2013-01-14 06:15:00,
2013-01-14 01:20:00,47.8,46.4,29.99,SSE,157,0.0,0.0,95,0.00,,---,0.00,VWS V14.01,2013-01-14 06:20:00,
2013-01-14 01:25:00,47.8,46.4,29.99,SSE,157,0.0,1.0,95,0.00,,---,0.00,VWS V14.01,2013-01-14 06:25:00,
2013-01-14 01:30:00,47.8,46.4,29.99,SSE,157,0.0,1.0,95,0.00,,---,0.00,VWS V14.01,2013-01-14 06:30:00,
2013-01-14 01:35:00,47.7,46.3,29.98,SSE,157,0.0,0.0,95,0.00,,---,0.00,VWS V14.01,2013-01-14 06:35:00,
2013-01-14 01:40:00,47.8,46.4,29.98,SSE,157,2.0,3.0,95,0.00,,---,0.00,VWS V14.01,2013-01-14 06:40:00,
2013-01-14 01:45:00,47.7,46.3,29.98,SSE,157,0.0,3.0,95,0.00,,---,0.00,VWS V14.01,2013-01-14 06:45:00,
2013-01-14 01:50:00,47.8,46.4,29.99,SSE,157,0.0,0.0,95,0.00,,---,0.00,VWS V14.01,2013-01-14 06:50:00,
2013-01-14 01:55:00,47.8,46.4,29.99,SSE,157,0.0,0.0,95,0.00,,---,0.00,VWS V14.01,2013-01-14 06:55:00,
2013-01-14 02:00:00,47.8,46.4,29.99,SSE,157,0.0,4.0,95,0.01,,---,0.01,VWS V14.01,2013-01-14 07:00:00,
2013-01-14 02:01:00,47.8,46.4,29.99,SSE,157,0.0,4.0,95,0.01,,---,0.01,VWS V14.01,2013-01-14 07:01:00,
2013-01-14 02:06:00,47.9,46.5,30.00,SSE,157,0.0,1.0,95,0.01,,---,0.01,VWS V14.01,2013-01-14 07:06:00,
2013-01-14 02:11:00,47.8,46.4,30.00,SSE,157,0.0,1.0,95,0.01,,---,0.01,VWS V14.01,2013-01-14 07:11:00,
2013-01-14 02:15:00,47.8,46.4,29.99,SSE,157,0.0,1.0,95,0.01,,---,0.01,VWS V14.01,2013-01-14 07:15:00,
2013-01-14 02:16:00,47.8,46.4,29.99,SSE,157,0.0,0.0,95,0.01,,---,0.01,VWS V14.01,2013-01-14 07:16:00,
2013-01-14 02:21:00,47.9,46.5,30.00,SSE,157,0.0,0.0,95,0.01,,---,0.01,VWS V14.01,2013-01-14 07:21:00,
2013-01-14 02:26:00,47.9,46.5,29.99,SSE,157,0.0,0.0,95,0.01,,---,0.01,VWS V14.01,2013-01-14 07:26:00,
2013-01-14 02:30:00,47.9,46.5,29.99,SSE,157,0.0,0.0,95,0.01,,---,0.01,VWS V14.01,2013-01-14 07:30:00,
2013-01-14 02:31:00,47.9,46.5,29.99,SSE,157,0.0,0.0,95,0.01,,---,0.01,VWS V14.01,2013-01-14 07:31:00,
2013-01-14 02:36:00,47.9,46.5,29.99,SSE,157,0.0,0.0,95,0.01,,---,0.01,VWS V14.01,2013-01-14 07:36:00,
2013-01-14 02:41:00,47.9,46.5,29.99,SSE,157,0.0,0.0,95,0.01,,---,0.01,VWS V14.01,2013-01-14 07:41:00,
2013-01-14 02:45:00,47.8,46.4,29.99,SSE,157,0.0,0.0,95,0.01,,---,0.01,VWS V14.01,2013-01-14 07:45:00,
2013-01-14 02:46:00,47.8,46.4,29.99,SSE,157,0.0,0.0,95,0.01,,---,0.01,VWS V14.01,2013-01-14 07:46:00,
2013-01-14 02:51:00,47.9,46.5,29.99,SSE,157,0.0,0.0,95,0.01,,---,0.01,VWS V14.01,2013-01-14 07:51:00,
2013-01-14 02:57:00,48.1,46.7,29.98,SSE,157,0.0,0.0,95,0.01,,---,0.01,VWS V14.01,2013-01-14 07:57:00,
2013-01-14 03:00:00,48.1,46.7,29.98,SSE,157,0.0,0.0,95,0.01,,---,0.01,VWS V14.01,2013-01-14 08:00:00,
2013-01-14 03:02:00,48.1,46.7,29.98,SSE,157,0.0,0.0,95,0.00,,---,0.01,VWS V14.01,2013-01-14 08:02:00,
2013-01-14 03:07:00,48.2,46.8,29.98,SSE,157,0.0,0.0,95,0.00,,---,0.01,VWS V14.01,2013-01-14 08:07:00,
2013-01-14 03:12:00,47.8,46.4,29.98,SSE,157,0.0,0.0,95,0.00,,---,0.01,VWS V14.01,2013-01-14 08:12:00,
2013-01-14 03:15:00,47.8,46.4,29.98,SSE,157,0.0,0.0,95,0.00,,---,0.01,VWS V14.01,2013-01-14 08:15:00,
2013-01-14 03:17:00,47.8,46.4,29.98,SSE,157,0.0,0.0,95,0.00,,---,0.01,VWS V14.01,2013-01-14 08:17:00,
2013-01-14 03:22:00,47.9,46.5,29.98,SSE,157,0.0,0.0,95,0.00,,---,0.01,VWS V14.01,2013-01-14 08:22:00,
2013-01-14 03:27:00,47.9,46.5,29.98,SSE,157,0.0,0.0,95,0.00,,---,0.01,VWS V14.01,2013-01-14 08:27:00,
2013-01-14 03:30:00,47.9,46.5,29.98,SSE,157,0.0,0.0,95,0.00,,---,0.01,VWS V14.01,2013-01-14 08:30:00,
2013-01-14 03:32:00,47.9,46.8,29.98,SSE,157,0.0,0.0,96,0.00,,---,0.01,VWS V14.01,2013-01-14 08:32:00,
2013-01-14 03:37:00,48.0,46.6,29.98,SSE,157,0.0,0.0,95,0.00,,---,0.01,VWS V14.01,2013-01-14 08:37:00,
2013-01-14 03:42:00,48.0,46.6,29.98,SSE,157,0.0,0.0,95,0.00,,---,0.01,VWS V14.01,2013-01-14 08:42:00,
2013-01-14 03:45:00,47.9,46.8,29.98,SSE,157,0.0,0.0,96,0.00,,---,0.01,VWS V14.01,2013-01-14 08:45:00,
2013-01-14 03:48:00,47.9,46.8,29.98,SSE,157,0.0,0.0,96,0.00,,---,0.01,VWS V14.01,2013-01-14 08:48:00,
2013-01-14 03:53:00,47.9,46.8,29.98,SSE,157,0.0,0.0,96,0.00,,---,0.01,VWS V14.01,2013-01-14 08:53:00,
2013-01-14 03:58:00,47.9,46.8,29.98,SSE,157,0.0,0.0,96,0.00,,---,0.01,VWS V14.01,2013-01-14 08:58:00,
2013-01-14 04:00:00,47.8,46.7,29.98,SSE,157,0.0,0.0,96,0.00,,---,0.01,VWS V14.01,2013-01-14 09:00:00,
2013-01-14 04:03:00,47.8,46.7,29.98,SSE,157,0.0,0.0,96,0.00,,---,0.01,VWS V14.01,2013-01-14 09:03:00,
2013-01-14 04:08:00,47.9,46.8,29.98,SSE,157,0.0,0.0,96,0.00,,---,0.01,VWS V14.01,2013-01-14 09:08:00,
2013-01-14 04:13:00,47.9,46.8,29.97,SSE,157,0.0,0.0,96,0.00,,---,0.01,VWS V14.01,2013-01-14 09:13:00,
2013-01-14 04:15:00,47.9,46.8,29.97,SSE,157,0.0,0.0,96,0.00,,---,0.01,VWS V14.01,2013-01-14 09:15:00,
2013-01-14 04:18:00,47.9,46.8,29.97,SSE,157,0.0,1.0,96,0.00,,---,0.01,VWS V14.01,2013-01-14 09:18:00,
2013-01-14 04:23:00,47.9,46.8,29.98,SSE,157,0.0,2.0,96,0.00,,---,0.01,VWS V14.01,2013-01-14 09:23:00,
2013-01-14 04:29:00,47.8,46.7,29.98,SSE,157,0.0,2.0,96,0.00,,---,0.01,VWS V14.01,2013-01-14 09:29:00,
2013-01-14 04:30:00,47.8,46.7,29.98,SSE,157,0.0,2.0,96,0.00,,---,0.01,VWS V14.01,2013-01-14 09:30:00,
2013-01-14 04:34:00,47.8,46.7,29.98,SSE,157,0.0,0.0,96,0.00,,---,0.01,VWS V14.01,2013-01-14 09:34:00,
2013-01-14 04:39:00,47.7,46.6,29.98,SSE,157,0.0,0.0,96,0.00,,---,0.01,VWS V14.01,2013-01-14 09:39:00,
2013-01-14 04:44:00,47.8,46.7,29.97,SSE,157,0.0,0.0,96,0.00,,---,0.01,VWS V14.01,2013-01-14 09:44:00,
2013-01-14 04:45:00,47.8,46.7,29.97,SSE,157,0.0,0.0,96,0.00,,---,0.01,VWS V14.01,2013-01-14 09:45:00,
2013-01-14 04:49:00,47.9,46.8,29.97,SSE,157,0.0,0.0,96,0.00,,---,0.01,VWS V14.01,2013-01-14 09:49:00,
2013-01-14 04:54:00,47.9,46.8,29.97,SSE,157,0.0,0.0,96,0.00,,---,0.01,VWS V14.01,2013-01-14 09:54:00,
2013-01-14 04:59:00,47.9,46.8,29.97,SSE,157,0.0,0.0,96,0.00,,---,0.01,VWS V14.01,2013-01-14 09:59:00,
2013-01-14 05:00:00,47.9,46.8,29.97,SSE,157,0.0,0.0,96,0.00,,---,0.01,VWS V14.01,2013-01-14 10:00:00,
2013-01-14 05:04:00,48.0,46.9,29.96,SSE,157,2.0,2.0,96,0.00,,---,0.01,VWS V14.01,2013-01-14 10:04:00,
2013-01-14 05:10:00,48.0,46.9,29.96,SSE,157,0.0,2.0,96,0.00,,---,0.01,VWS V14.01,2013-01-14 10:10:00,
2013-01-14 05:15:00,47.9,46.8,29.96,SSE,157,0.0,2.0,96,0.00,,---,0.01,VWS V14.01,2013-01-14 10:15:00,
2013-01-14 05:20:00,47.9,46.8,29.95,SSE,157,3.0,4.0,96,0.00,,---,0.01,VWS V14.01,2013-01-14 10:20:00,
2013-01-14 05:25:00,48.0,46.6,29.92,ESE,119,5.0,7.0,95,0.00,,---,0.01,VWS V14.01,2013-01-14 10:25:00,
2013-01-14 05:30:00,48.1,46.7,29.95,North,355,0.0,7.0,95,0.00,,---,0.01,VWS V14.01,2013-01-14 10:30:00,
2013-01-14 05:35:00,48.1,46.7,29.94,East,101,0.0,5.0,95,0.00,,---,0.01,VWS V14.01,2013-01-14 10:35:00,
2013-01-14 05:40:00,48.1,47.0,29.94,WSW,245,3.0,5.0,96,0.00,,---,0.01,VWS V14.01,2013-01-14 10:40:00,
2013-01-14 05:45:00,48.1,47.0,29.94,North,351,4.0,6.0,96,0.00,,---,0.01,VWS V14.01,2013-01-14 10:45:00,
2013-01-14 05:50:00,48.2,47.1,29.93,NW,326,3.0,5.0,96,0.00,,---,0.01,VWS V14.01,2013-01-14 10:50:00,
2013-01-14 05:56:00,48.3,47.2,29.91,ESE,121,4.0,5.0,96,0.00,,---,0.01,VWS V14.01,2013-01-14 10:56:00,
2013-01-14 06:00:00,48.5,47.4,29.89,ESE,120,9.0,9.0,96,0.00,,---,0.01,VWS V14.01,2013-01-14 11:00:00,
2013-01-14 06:01:00,48.5,47.4,29.89,ESE,120,9.0,9.0,96,0.00,,---,0.01,VWS V14.01,2013-01-14 11:01:00,
2013-01-14 06:06:00,48.7,47.6,29.88,ESE,118,4.0,13.0,96,0.00,,---,0.01,VWS V14.01,2013-01-14 11:06:00,
2013-01-14 06:11:00,49.0,47.9,29.90,ESE,102,0.0,13.0,96,0.00,,---,0.01,VWS V14.01,2013-01-14 11:11:00,
2013-01-14 06:15:00,49.1,48.0,29.93,WNW,286,4.0,13.0,96,0.00,,---,0.01,VWS V14.01,2013-01-14 11:15:00,
2013-01-14 06:16:00,49.1,48.0,29.93,WNW,286,5.0,5.0,96,0.00,,---,0.01,VWS V14.01,2013-01-14 11:16:00,
2013-01-14 06:21:00,49.2,48.1,29.94,WNW,301,2.0,7.0,96,0.00,,---,0.01,VWS V14.01,2013-01-14 11:21:00,
2013-01-14 06:26:00,49.2,48.1,29.98,West,280,5.0,9.0,96,0.01,,---,0.02,VWS V14.01,2013-01-14 11:26:00,
2013-01-14 06:30:00,49.5,48.4,29.97,WNW,288,3.0,9.0,96,0.01,,---,0.02,VWS V14.01,2013-01-14 11:30:00,
2013-01-14 06:31:00,49.5,48.4,29.97,WNW,290,3.0,4.0,96,0.01,,---,0.02,VWS V14.01,2013-01-14 11:31:00,
2013-01-14 06:36:00,49.5,48.4,29.98,WNW,298,6.0,9.0,96,0.01,,---,0.02,VWS V14.01,2013-01-14 11:36:00,
2013-01-14 06:41:00,49.3,48.2,29.99,NNW,329,8.0,9.0,96,0.01,,---,0.02,VWS V14.01,2013-01-14 11:41:00,
2013-01-14 06:45:00,49.2,48.1,29.99,NW,326,4.0,9.0,96,0.01,,---,0.02,VWS V14.01,2013-01-14 11:45:00,
2013-01-14 06:46:00,49.2,48.1,29.99,NW,326,4.0,5.0,96,0.01,,---,0.02,VWS V14.01,2013-01-14 11:46:00,
2013-01-14 06:51:00,49.2,48.1,29.98,NNW,331,1.0,6.0,96,0.01,,---,0.02,VWS V14.01,2013-01-14 11:51:00,
2013-01-14 06:56:00,49.2,48.1,29.99,NNW,335,2.0,6.0,96,0.01,,---,0.02,VWS V14.01,2013-01-14 11:56:00,
2013-01-14 07:00:00,49.2,48.1,30.00,NNW,328,0.0,6.0,96,0.01,,---,0.02,VWS V14.01,2013-01-14 12:00:00,
2013-01-14 07:02:00,49.2,48.1,30.00,NW,325,4.0,4.0,96,0.01,,---,0.02,VWS V14.01,2013-01-14 12:02:00,
2013-01-14 07:07:00,49.2,48.1,30.00,NW,309,0.0,6.0,96,0.01,,---,0.02,VWS V14.01,2013-01-14 12:07:00,
2013-01-14 07:12:00,49.3,48.2,30.00,NW,309,0.0,6.0,96,0.01,,---,0.02,VWS V14.01,2013-01-14 12:12:00,
2013-01-14 07:15:00,49.3,48.2,30.00,NW,309,0.0,6.0,96,0.01,,---,0.02,VWS V14.01,2013-01-14 12:15:00,
2013-01-14 07:17:00,49.3,48.2,30.00,NW,309,0.0,0.0,96,0.01,,---,0.02,VWS V14.01,2013-01-14 12:17:00,
2013-01-14 07:22:00,49.4,48.3,30.01,NW,309,2.0,3.0,96,0.01,,---,0.02,VWS V14.01,2013-01-14 12:22:00,
2013-01-14 07:27:00,49.4,48.3,30.02,NW,310,2.0,5.0,96,0.01,,---,0.02,VWS V14.01,2013-01-14 12:27:00,
2013-01-14 07:30:00,49.4,48.3,30.02,NW,310,3.0,5.0,96,0.01,,---,0.02,VWS V14.01,2013-01-14 12:30:00,
2013-01-14 07:32:00,49.4,48.3,30.02,NW,310,0.0,3.0,96,0.00,,---,0.02,VWS V14.01,2013-01-14 12:32:00,
2013-01-14 07:37:00,49.4,48.3,30.01,NW,310,0.0,3.0,96,0.00,,---,0.02,VWS V14.01,2013-01-14 12:37:00,
2013-01-14 07:42:00,49.5,48.4,30.02,NW,310,0.0,3.0,96,0.00,,---,0.02,VWS V14.01,2013-01-14 12:42:00,
2013-01-14 07:45:00,49.5,48.4,30.01,NW,310,0.0,3.0,96,0.00,,---,0.02,VWS V14.01,2013-01-14 12:45:00,
2013-01-14 07:47:00,49.7,48.6,30.00,NW,310,0.0,0.0,96,0.00,,---,0.02,VWS V14.01,2013-01-14 12:47:00,
2013-01-14 07:52:00,49.8,48.7,30.01,NW,310,0.0,0.0,96,0.00,,---,0.02,VWS V14.01,2013-01-14 12:52:00,
2013-01-14 07:57:00,49.6,48.5,30.02,NW,310,0.0,1.0,96,0.00,,---,0.02,VWS V14.01,2013-01-14 12:57:00,
2013-01-14 08:00:00,49.7,48.6,30.02,NW,310,0.0,3.0,96,0.00,,---,0.02,VWS V14.01,2013-01-14 13:00:00,
2013-01-14 08:02:00,49.7,48.6,30.02,NW,310,0.0,3.0,96,0.00,,---,0.02,VWS V14.01,2013-01-14 13:02:00,
2013-01-14 08:08:00,49.8,48.7,30.02,NW,310,0.0,3.0,96,0.00,,---,0.02,VWS V14.01,2013-01-14 13:08:00,
2013-01-14 08:13:00,49.8,48.7,30.01,NW,310,0.0,3.0,96,0.00,,---,0.02,VWS V14.01,2013-01-14 13:13:00,
2013-01-14 08:15:00,49.8,48.7,30.02,NW,310,0.0,3.0,96,0.00,,---,0.02,VWS V14.01,2013-01-14 13:15:00,
2013-01-14 08:18:00,49.9,48.8,30.01,NW,310,0.0,0.0,96,0.00,,---,0.02,VWS V14.01,2013-01-14 13:18:00,
2013-01-14 08:23:00,49.9,48.8,30.02,NW,310,0.0,0.0,96,0.00,,---,0.02,VWS V14.01,2013-01-14 13:23:00,
2013-01-14 08:28:00,49.9,48.8,30.04,NW,310,3.0,4.0,96,0.00,,---,0.02,VWS V14.01,2013-01-14 13:28:00,
2013-01-14 08:30:00,49.9,48.8,30.05,NW,310,1.0,4.0,96,0.00,,---,0.02,VWS V14.01,2013-01-14 13:30:00,
2013-01-14 08:33:00,50.1,49.0,30.04,NW,310,4.0,4.0,96,0.00,,---,0.02,VWS V14.01,2013-01-14 13:33:00,
2013-01-14 08:38:00,50.3,49.2,30.05,NW,313,3.0,5.0,96,0.00,,---,0.02,VWS V14.01,2013-01-14 13:38:00,
2013-01-14 08:43:00,50.5,49.4,30.05,WNW,288,1.0,6.0,96,0.00,,---,0.02,VWS V14.01,2013-01-14 13:43:00,
2013-01-14 08:45:00,50.5,49.4,30.05,West,277,6.0,6.0,96,0.00,,---,0.02,VWS V14.01,2013-01-14 13:45:00,
2013-01-14 08:48:00,50.5,49.4,30.05,West,268,3.0,6.0,96,0.00,,---,0.02,VWS V14.01,2013-01-14 13:48:00,
2013-01-14 08:53:00,50.5,49.4,30.05,West,279,4.0,6.0,96,0.00,,---,0.02,VWS V14.01,2013-01-14 13:53:00,
2013-01-14 08:58:00,50.5,49.4,30.05,WNW,289,1.0,8.0,96,0.00,,---,0.02,VWS V14.01,2013-01-14 13:58:00,
2013-01-14 09:00:00,50.5,49.4,30.05,WSW,245,4.0,8.0,96,0.00,,---,0.02,VWS V14.01,2013-01-14 14:00:00,
2013-01-14 09:03:00,50.4,49.3,30.05,WSW,252,0.0,7.0,96,0.00,,---,0.02,VWS V14.01,2013-01-14 14:03:00,
2013-01-14 09:08:00,50.3,49.2,30.05,West,274,0.0,7.0,96,0.00,,---,0.02,VWS V14.01,2013-01-14 14:08:00,
2013-01-14 09:13:00,50.3,49.2,30.05,WNW,283,4.0,7.0,96,0.00,,---,0.02,VWS V14.01,2013-01-14 14:13:00,
2013-01-14 09:15:00,50.3,49.2,30.05,WNW,288,5.0,7.0,96,0.00,,---,0.02,VWS V14.01,2013-01-14 14:15:00,
2013-01-14 09:18:00,50.2,49.1,30.05,WNW,286,3.0,5.0,96,0.00,,---,0.02,VWS V14.01,2013-01-14 14:18:00,
2013-01-14 09:24:00,50.2,49.1,30.06,West,279,3.0,5.0,96,0.00,,---,0.02,VWS V14.01,2013-01-14 14:24:00,
2013-01-14 09:29:00,50.1,49.0,30.06,West,269,3.0,8.0,96,0.00,,---,0.02,VWS V14.01,2013-01-14 14:29:00,
2013-01-14 09:30:00,50.1,49.0,30.06,West,265,4.0,8.0,96,0.00,,---,0.02,VWS V14.01,2013-01-14 14:30:00,
2013-01-14 09:34:00,50.1,49.0,30.06,SW,226,3.0,7.0,96,0.00,,---,0.02,VWS V14.01,2013-01-14 14:34:00,
2013-01-14 09:39:00,50.1,49.0,30.06,West,259,3.0,7.0,96,0.00,,---,0.02,VWS V14.01,2013-01-14 14:39:00,
2013-01-14 09:44:00,50.2,49.1,30.05,West,262,3.0,7.0,96,0.00,,---,0.02,VWS V14.01,2013-01-14 14:44:00,
2013-01-14 09:45:00,50.2,49.1,30.06,West,259,6.0,7.0,96,0.00,,---,0.02,VWS V14.01,2013-01-14 14:45:00,
2013-01-14 09:49:00,50.3,49.2,30.06,West,270,5.0,7.0,96,0.00,,---,0.02,VWS V14.01,2013-01-14 14:49:00,
2013-01-14 09:54:00,50.5,49.4,30.06,WSW,245,5.0,9.0,96,0.00,,---,0.02,VWS V14.01,2013-01-14 14:54:00,
2013-01-14 09:59:00,50.5,49.4,30.07,WNW,285,7.0,9.0,96,0.00,,---,0.02,VWS V14.01,2013-01-14 14:59:00,
2013-01-14 10:00:00,50.5,49.4,30.07,West,271,3.0,9.0,96,0.00,,---,0.02,VWS V14.01,2013-01-14 15:00:00,
2013-01-14 10:04:00,50.6,49.5,30.07,WNW,286,3.0,6.0,96,0.00,,---,0.02,VWS V14.01,2013-01-14 15:04:00,
2013-01-14 10:09:00,50.8,49.7,30.07,West,263,2.0,7.0,96,0.00,,---,0.02,VWS V14.01,2013-01-14 15:09:00,
2013-01-14 10:14:00,50.9,49.8,30.08,WNW,293,8.0,10.0,96,0.00,,---,0.02,VWS V14.01,2013-01-14 15:14:00,
2013-01-14 10:15:00,50.9,49.8,30.08,West,281,3.0,10.0,96,0.00,,---,0.02,VWS V14.01,2013-01-14 15:15:00,
2013-01-14 10:19:00,51.0,49.9,30.07,West,263,6.0,11.0,96,0.00,,---,0.02,VWS V14.01,2013-01-14 15:19:00,
2013-01-14 10:24:00,51.0,49.9,30.07,NW,304,3.0,11.0,96,0.00,,---,0.02,VWS V14.01,2013-01-14 15:24:00,
2013-01-14 10:29:00,51.2,50.1,30.07,NW,308,7.0,11.0,96,0.00,,---,0.02,VWS V14.01,2013-01-14 15:29:00,
2013-01-14 10:30:00,51.2,50.1,30.07,WNW,298,5.0,11.0,96,0.00,,---,0.02,VWS V14.01,2013-01-14 15:30:00,
2013-01-14 10:34:00,51.5,50.4,30.08,West,275,11.0,11.0,96,0.00,,---,0.02,VWS V14.01,2013-01-14 15:34:00,
2013-01-14 10:39:00,51.5,50.4,30.08,WSW,253,3.0,12.0,96,0.00,,---,0.02,VWS V14.01,2013-01-14 15:39:00,
2013-01-14 10:45:00,51.5,50.4,30.08,West,267,4.0,12.0,96,0.00,,---,0.02,VWS V14.01,2013-01-14 15:45:00,
2013-01-14 10:50:00,51.7,50.6,30.08,West,269,0.0,6.0,96,0.00,,---,0.02,VWS V14.01,2013-01-14 15:50:00,
2013-01-14 10:55:00,51.9,50.8,30.08,WNW,293,3.0,6.0,96,0.00,,---,0.02,VWS V14.01,2013-01-14 15:55:00,
2013-01-14 11:00:00,52.0,50.9,30.08,WNW,303,6.0,8.0,96,0.00,,---,0.02,VWS V14.01,2013-01-14 16:00:00,
2013-01-14 11:05:00,52.1,51.0,30.08,WNW,296,3.0,7.0,96,0.00,,---,0.02,VWS V14.01,2013-01-14 16:05:00,
2013-01-14 11:10:00,52.4,51.3,30.08,NW,310,0.0,8.0,96,0.00,,---,0.02,VWS V14.01,2013-01-14 16:10:00,
2013-01-14 11:15:00,52.6,51.5,30.08,WNW,289,5.0,9.0,96,0.00,,---,0.02,VWS V14.01,2013-01-14 16:15:00,
2013-01-14 11:20:00,52.8,51.7,30.08,West,277,2.0,6.0,96,0.00,,---,0.02,VWS V14.01,2013-01-14 16:20:00,
2013-01-14 11:25:00,52.9,51.8,30.08,WNW,302,3.0,7.0,96,0.00,,---,0.02,VWS V14.01,2013-01-14 16:25:00,
2013-01-14 11:30:00,53.0,51.9,30.08,NW,306,5.0,8.0,96,0.00,,---,0.02,VWS V14.01,2013-01-14 16:30:00,
2013-01-14 11:35:00,53.2,52.1,30.08,NW,311,1.0,5.0,96,0.00,,---,0.02,VWS V14.01,2013-01-14 16:35:00,
2013-01-14 11:40:00,53.4,52.3,30.09,NW,326,4.0,7.0,96,0.00,,---,0.02,VWS V14.01,2013-01-14 16:40:00,
2013-01-14 11:45:00,53.5,52.4,30.08,NW,321,3.0,8.0,96,0.00,,---,0.02,VWS V14.01,2013-01-14 16:45:00,
2013-01-14 11:50:00,53.8,52.7,30.07,NNW,338,4.0,8.0,96,0.00,,---,0.02,VWS V14.01,2013-01-14 16:50:00,
2013-01-14 11:55:00,54.1,53.0,30.06,NW,325,3.0,8.0,96,0.00,,---,0.02,VWS V14.01,2013-01-14 16:55:00,
2013-01-14 12:00:00,54.3,53.2,30.06,NW,326,5.0,9.0,96,0.00,,---,0.02,VWS V14.01,2013-01-14 17:00:00,
2013-01-14 12:05:00,54.6,53.2,30.06,NNW,327,7.0,7.0,95,0.00,,---,0.02,VWS V14.01,2013-01-14 17:05:00,
2013-01-14 12:10:00,54.8,53.4,30.07,NW,323,4.0,8.0,95,0.00,,---,0.02,VWS V14.01,2013-01-14 17:10:00,
2013-01-14 12:15:00,54.9,53.5,30.07,NW,309,7.0,8.0,95,0.00,,---,0.02,VWS V14.01,2013-01-14 17:15:00,
2013-01-14 12:16:00,54.9,53.5,30.07,NW,323,5.0,8.0,95,0.00,,---,0.02,VWS V14.01,2013-01-14 17:16:00,
2013-01-14 12:21:00,55.1,53.4,30.07,NW,319,2.0,8.0,94,0.00,,---,0.02,VWS V14.01,2013-01-14 17:21:00,
2013-01-14 12:26:00,55.3,53.6,30.07,NNW,330,5.0,8.0,94,0.00,,---,0.02,VWS V14.01,2013-01-14 17:26:00,
2013-01-14 12:30:00,55.4,53.4,30.06,NNW,330,3.0,8.0,93,0.00,,---,0.02,VWS V14.01,2013-01-14 17:30:00,
2013-01-14 12:31:00,55.4,53.4,30.06,NNW,330,3.0,8.0,93,0.00,,---,0.02,VWS V14.01,2013-01-14 17:31:00,
2013-01-14 12:36:00,55.5,53.2,30.06,NNW,336,5.0,11.0,92,0.00,,---,0.02,VWS V14.01,2013-01-14 17:36:00,
2013-01-14 12:41:00,55.6,52.7,30.06,NNW,329,5.0,11.0,90,0.00,,---,0.02,VWS V14.01,2013-01-14 17:41:00,
2013-01-14 12:45:00,55.7,52.5,30.07,WNW,302,3.0,11.0,89,0.00,,---,0.02,VWS V14.01,2013-01-14 17:45:00,
2013-01-14 12:46:00,55.7,52.5,30.07,WNW,303,3.0,4.0,89,0.00,,---,0.02,VWS V14.01,2013-01-14 17:46:00,
2013-01-14 12:51:00,55.7,51.9,30.06,NNW,329,3.0,7.0,87,0.00,,---,0.02,VWS V14.01,2013-01-14 17:51:00,
2013-01-14 12:56:00,55.7,51.9,30.07,NNW,330,3.0,7.0,87,0.00,,---,0.02,VWS V14.01,2013-01-14 17:56:00,
2013-01-14 13:00:00,55.6,51.2,30.07,NW,314,9.0,9.0,85,0.00,,---,0.02,VWS V14.01,2013-01-14 18:00:00,
2013-01-14 13:01:00,55.6,51.2,30.07,WNW,290,8.0,10.0,85,0.00,,---,0.02,VWS V14.01,2013-01-14 18:01:00,
2013-01-14 13:06:00,55.7,50.0,30.07,NNW,331,2.0,10.0,81,0.00,,---,0.02,VWS V14.01,2013-01-14 18:06:00,
2013-01-14 13:11:00,55.8,49.4,30.08,NW,323,5.0,12.0,79,0.00,,---,0.02,VWS V14.01,2013-01-14 18:11:00,
2013-01-14 13:15:00,55.7,49.0,30.07,NW,323,3.0,12.0,78,0.00,,---,0.02,VWS V14.01,2013-01-14 18:15:00,
2013-01-14 13:16:00,55.7,49.0,30.07,NW,321,5.0,5.0,78,0.00,,---,0.02,VWS V14.01,2013-01-14 18:16:00,
2013-01-14 13:21:00,55.8,48.7,30.07,NNW,336,6.0,8.0,77,0.00,,---,0.02,VWS V14.01,2013-01-14 18:21:00,
2013-01-14 13:26:00,55.8,48.4,30.08,NW,321,4.0,8.0,76,0.00,,---,0.02,VWS V14.01,2013-01-14 18:26:00,
2013-01-14 13:30:00,55.8,48.4,30.08,NW,321,3.0,8.0,76,0.00,,---,0.02,VWS V14.01,2013-01-14 18:30:00,
2013-01-14 13:31:00,55.9,48.5,30.08,NW,321,2.0,3.0,76,0.00,,---,0.02,VWS V14.01,2013-01-14 18:31:00,
2013-01-14 13:36:00,55.9,47.7,30.08,North,5,4.0,7.0,74,0.00,,---,0.02,VWS V14.01,2013-01-14 18:36:00,
2013-01-14 13:41:00,56.0,47.5,30.08,NNW,331,4.0,9.0,73,0.00,,---,0.02,VWS V14.01,2013-01-14 18:41:00,
2013-01-14 13:45:00,56.1,47.6,30.08,NW,313,5.0,9.0,73,0.00,,---,0.02,VWS V14.01,2013-01-14 18:45:00,
2013-01-14 13:47:00,56.1,47.6,30.08,NW,313,3.0,5.0,73,0.00,,---,0.02,VWS V14.01,2013-01-14 18:47:00,
2013-01-14 13:52:00,56.0,47.1,30.08,WNW,298,6.0,8.0,72,0.00,,---,0.02,VWS V14.01,2013-01-14 18:52:00,
2013-01-14 13:57:00,56.0,46.4,30.08,NNW,331,5.0,9.0,70,0.00,,---,0.02,VWS V14.01,2013-01-14 18:57:00,
2013-01-14 14:00:00,56.0,46.0,30.09,WNW,300,0.0,9.0,69,0.00,,---,0.02,VWS V14.01,2013-01-14 19:00:00,
2013-01-14 14:02:00,55.9,45.9,30.09,NW,315,10.0,11.0,69,0.00,,---,0.02,VWS V14.01,2013-01-14 19:02:00,
2013-01-14 14:07:00,55.8,45.0,30.09,NW,323,3.0,11.0,67,0.00,,---,0.02,VWS V14.01,2013-01-14 19:07:00,
2013-01-14 14:12:00,55.7,44.9,30.10,NW,311,3.0,11.0,67,0.00,,---,0.02,VWS V14.01,2013-01-14 19:12:00,
2013-01-14 14:15:00,55.6,44.8,30.10,WNW,300,5.0,11.0,67,0.00,,---,0.02,VWS V14.01,2013-01-14 19:15:00,
2013-01-14 14:17:00,55.5,44.7,30.11,WNW,298,6.0,7.0,67,0.00,,---,0.02,VWS V14.01,2013-01-14 19:17:00,
2013-01-14 14:22:00,55.4,43.8,30.11,NW,321,4.0,10.0,65,0.00,,---,0.02,VWS V14.01,2013-01-14 19:22:00,
2013-01-14 14:27:00,55.3,43.3,30.12,NW,313,3.0,10.0,64,0.00,,---,0.02,VWS V14.01,2013-01-14 19:27:00,
2013-01-14 14:30:00,55.2,43.2,30.12,NW,315,10.0,10.0,64,0.00,,---,0.02,VWS V14.01,2013-01-14 19:30:00,
2013-01-14 14:32:00,55.2,43.2,30.12,NNW,336,6.0,10.0,64,0.00,,---,0.02,VWS V14.01,2013-01-14 19:32:00,
2013-01-14 14:37:00,55.1,43.2,30.13,WNW,301,5.0,10.0,64,0.00,,---,0.02,VWS V14.01,2013-01-14 19:37:00,
2013-01-14 14:42:00,54.9,42.1,30.12,NW,321,6.0,10.0,62,0.00,,---,0.02,VWS V14.01,2013-01-14 19:42:00,
2013-01-14 14:45:00,54.8,42.0,30.11,NW,315,4.0,11.0,62,0.00,,---,0.02,VWS V14.01,2013-01-14 19:45:00,
2013-01-14 14:47:00,54.7,41.5,30.10,NW,318,10.0,11.0,61,0.00,,---,0.02,VWS V14.01,2013-01-14 19:47:00,
2013-01-14 14:52:00,54.6,41.0,30.11,NNW,341,8.0,11.0,60,0.00,,---,0.02,VWS V14.01,2013-01-14 19:52:00,
2013-01-14 14:57:00,54.6,41.4,30.12,WNW,302,6.0,11.0,61,0.00,,---,0.02,VWS V14.01,2013-01-14 19:57:00,
2013-01-14 15:00:00,54.6,41.4,30.12,NNW,344,5.0,11.0,61,0.00,,---,0.02,VWS V14.01,2013-01-14 20:00:00,
2013-01-14 15:02:00,54.5,41.8,30.12,North,5,0.0,7.0,62,0.00,,---,0.02,VWS V14.01,2013-01-14 20:02:00,
2013-01-14 15:07:00,54.5,41.3,30.12,NW,315,4.0,8.0,61,0.00,,---,0.02,VWS V14.01,2013-01-14 20:07:00,
2013-01-14 15:13:00,54.4,41.2,30.13,NNW,332,2.0,8.0,61,0.00,,---,0.02,VWS V14.01,2013-01-14 20:13:00,
2013-01-14 15:15:00,54.4,41.2,30.12,NNE,15,3.0,8.0,61,0.00,,---,0.02,VWS V14.01,2013-01-14 20:15:00,
2013-01-14 15:18:00,54.3,41.6,30.13,North,351,2.0,5.0,62,0.00,,---,0.02,VWS V14.01,2013-01-14 20:18:00,
2013-01-14 15:23:00,54.3,42.0,30.12,WNW,292,0.0,5.0,63,0.00,,---,0.02,VWS V14.01,2013-01-14 20:23:00,
2013-01-14 15:28:00,54.2,41.5,30.13,North,355,10.0,13.0,62,0.00,,---,0.02,VWS V14.01,2013-01-14 20:28:00,
2013-01-14 15:30:00,54.1,41.4,30.13,NNW,339,1.0,13.0,62,0.00,,---,0.02,VWS V14.01,2013-01-14 20:30:00,
2013-01-14 15:33:00,54.0,41.3,30.13,NW,323,7.0,9.0,62,0.00,,---,0.02,VWS V14.01,2013-01-14 20:33:00,
2013-01-14 15:38:00,53.8,41.1,30.14,NNW,347,5.0,9.0,62,0.00,,---,0.02,VWS V14.01,2013-01-14 20:38:00,
2013-01-14 15:43:00,53.8,41.1,30.14,NW,313,4.0,9.0,62,0.00,,---,0.02,VWS V14.01,2013-01-14 20:43:00,
2013-01-14 15:45:00,53.7,41.0,30.14,NNW,329,5.0,9.0,62,0.00,,---,0.02,VWS V14.01,2013-01-14 20:45:00,
2013-01-14 15:48:00,53.7,41.4,30.14,NNW,340,0.0,5.0,63,0.00,,---,0.02,VWS V14.01,2013-01-14 20:48:00,
2013-01-14 15:53:00,53.6,41.3,30.13,NNE,22,0.0,5.0,63,0.00,,---,0.02,VWS V14.01,2013-01-14 20:53:00,
2013-01-14 15:58:00,53.4,40.7,30.12,NNW,341,5.0,7.0,62,0.00,,---,0.02,VWS V14.01,2013-01-14 20:58:00,
2013-01-14 16:00:00,53.4,41.1,30.13,NNW,346,6.0,7.0,63,0.00,,---,0.02,VWS V14.01,2013-01-14 21:00:00,
2013-01-14 16:03:00,53.4,41.1,30.13,North,355,4.0,8.0,63,0.00,,---,0.02,VWS V14.01,2013-01-14 21:03:00,
2013-01-14 16:08:00,53.3,40.6,30.13,NW,317,5.0,12.0,62,0.00,,---,0.02,VWS V14.01,2013-01-14 21:08:00,
2013-01-14 16:13:00,53.2,40.5,30.13,NW,306,8.0,12.0,62,0.00,,---,0.02,VWS V14.01,2013-01-14 21:13:00,
2013-01-14 16:15:00,53.2,40.5,30.14,NNW,333,4.0,12.0,62,0.00,,---,0.02,VWS V14.01,2013-01-14 21:15:00,
2013-01-14 16:18:00,53.2,40.5,30.13,North,349,9.0,9.0,62,0.00,,---,0.02,VWS V14.01,2013-01-14 21:18:00,
2013-01-14 16:23:00,53.1,40.4,30.14,NE,44,1.0,10.0,62,0.00,,---,0.02,VWS V14.01,2013-01-14 21:23:00,
2013-01-14 16:28:00,52.9,41.1,30.13,NE,53,4.0,10.0,64,0.00,,---,0.02,VWS V14.01,2013-01-14 21:28:00,
2013-01-14 16:30:00,52.8,41.0,30.14,NNE,12,3.0,10.0,64,0.00,,---,0.02,VWS V14.01,2013-01-14 21:30:00,
2013-01-14 16:33:00,52.7,40.5,30.14,NNE,15,3.0,8.0,63,0.00,,---,0.02,VWS V14.01,2013-01-14 21:33:00,
2013-01-14 16:39:00,52.5,40.7,30.14,NW,321,1.0,9.0,64,0.00,,---,0.02,VWS V14.01,2013-01-14 21:39:00,
2013-01-14 16:44:00,52.3,40.5,30.14,NE,52,1.0,9.0,64,0.00,,---,0.02,VWS V14.01,2013-01-14 21:44:00,
2013-01-14 16:45:00,52.2,40.0,30.14,NW,323,2.0,9.0,63,0.00,,---,0.02,VWS V14.01,2013-01-14 21:45:00,
2013-01-14 16:49:00,52.2,40.4,30.15,NNE,25,8.0,9.0,64,0.00,,---,0.02,VWS V14.01,2013-01-14 21:49:00,
2013-01-14 16:54:00,52.1,39.9,30.15,North,5,5.0,13.0,63,0.00,,---,0.02,VWS V14.01,2013-01-14 21:54:00,
2013-01-14 16:59:00,52.0,39.8,30.15,NNW,344,0.0,13.0,63,0.00,,---,0.02,VWS V14.01,2013-01-14 21:59:00,
2013-01-14 17:00:00,51.9,39.3,30.15,NNE,30,7.0,13.0,62,0.00,,---,0.02,VWS V14.01,2013-01-14 22:00:00,
2013-01-14 17:04:00,51.7,39.5,30.15,NNW,346,7.0,11.0,63,0.00,,---,0.02,VWS V14.01,2013-01-14 22:04:00,
2013-01-14 17:09:00,51.4,38.8,30.16,NNE,31,5.0,11.0,62,0.00,,---,0.02,VWS V14.01,2013-01-14 22:09:00,
2013-01-14 17:14:00,51.1,38.5,30.16,NE,43,4.0,11.0,62,0.00,,---,0.02,VWS V14.01,2013-01-14 22:14:00,
2013-01-14 17:15:00,51.0,38.5,30.16,NE,54,6.0,11.0,62,0.00,,---,0.02,VWS V14.01,2013-01-14 22:15:00,
2013-01-14 17:19:00,50.9,38.0,30.16,NE,53,6.0,9.0,61,0.00,,---,0.02,VWS V14.01,2013-01-14 22:19:00,
2013-01-14 17:24:00,50.7,37.3,30.15,NNW,335,4.0,11.0,60,0.00,,---,0.02,VWS V14.01,2013-01-14 22:24:00,
2013-01-14 17:29:00,50.6,36.8,30.16,North,350,3.0,11.0,59,0.00,,---,0.02,VWS V14.01,2013-01-14 22:29:00,
2013-01-14 17:30:00,50.5,37.2,30.16,NNE,28,1.0,11.0,60,0.00,,---,0.02,VWS V14.01,2013-01-14 22:30:00,
2013-01-14 17:34:00,50.5,36.7,30.16,North,360,4.0,8.0,59,0.00,,---,0.02,VWS V14.01,2013-01-14 22:34:00,
2013-01-14 17:39:00,50.3,36.5,30.16,NNE,23,4.0,8.0,59,0.00,,---,0.02,VWS V14.01,2013-01-14 22:39:00,
2013-01-14 17:44:00,50.2,36.4,30.16,NNE,25,3.0,8.0,59,0.00,,---,0.02,VWS V14.01,2013-01-14 22:44:00,
2013-01-14 17:45:00,50.2,36.4,30.17,North,355,3.0,8.0,59,0.00,,---,0.02,VWS V14.01,2013-01-14 22:45:00,
2013-01-14 17:49:00,50.1,36.3,30.17,NW,324,3.0,7.0,59,0.00,,---,0.02,VWS V14.01,2013-01-14 22:49:00,
2013-01-14 17:54:00,49.9,35.7,30.16,North,350,4.0,9.0,58,0.00,,---,0.02,VWS V14.01,2013-01-14 22:54:00,
2013-01-14 17:59:00,49.9,35.7,30.17,NNW,338,3.0,9.0,58,0.00,,---,0.02,VWS V14.01,2013-01-14 22:59:00,
2013-01-14 18:00:00,49.9,35.7,30.17,NW,315,7.0,9.0,58,0.00,,---,0.02,VWS V14.01,2013-01-14 23:00:00,
2013-01-14 18:04:00,49.8,33.4,30.17,NNW,345,11.0,15.0,53,0.00,,---,0.02,VWS V14.01,2013-01-14 23:04:00,
2013-01-14 18:09:00,49.7,31.8,30.17,NNE,14,5.0,15.0,50,0.00,,---,0.02,VWS V14.01,2013-01-14 23:09:00,
2013-01-14 18:14:00,49.6,32.2,30.16,NNW,341,1.0,15.0,51,0.00,,---,0.02,VWS V14.01,2013-01-14 23:14:00,
2013-01-14 18:15:00,49.6,31.7,30.16,North,355,1.0,15.0,50,0.00,,---,0.02,VWS V14.01,2013-01-14 23:15:00,
2013-01-14 18:19:00,49.5,32.6,30.16,NNW,342,0.0,4.0,52,0.00,,---,0.02,VWS V14.01,2013-01-14 23:19:00,
2013-01-14 18:24:00,49.4,32.0,30.16,NNW,345,0.0,10.0,51,0.00,,---,0.02,VWS V14.01,2013-01-14 23:24:00,
2013-01-14 18:29:00,49.2,31.9,30.16,North,5,3.0,10.0,51,0.00,,---,0.02,VWS V14.01,2013-01-14 23:29:00,
2013-01-14 18:30:00,49.2,31.9,30.17,NNW,343,2.0,10.0,51,0.00,,---,0.02,VWS V14.01,2013-01-14 23:30:00,
2013-01-14 18:34:00,49.2,32.3,30.17,NNW,346,0.0,6.0,52,0.00,,---,0.02,VWS V14.01,2013-01-14 23:34:00,
2013-01-14 18:40:00,49.0,31.7,30.18,NW,319,6.0,10.0,51,0.00,,---,0.02,VWS V14.01,2013-01-14 23:40:00,
2013-01-14 18:45:00,49.0,31.7,30.17,North,5,3.0,10.0,51,0.00,,---,0.02,VWS V14.01,2013-01-14 23:45:00,
2013-01-14 18:50:00,48.9,31.6,30.18,NNW,340,6.0,6.0,51,0.00,,---,0.02,VWS V14.01,2013-01-14 23:50:00,
2013-01-14 18:55:00,48.7,30.9,30.19,NNW,331,3.0,7.0,50,0.00,,---,0.02,VWS V14.01,2013-01-14 23:55:00,
2013-01-14 19:00:00,48.7,29.4,30.20,NW,322,8.0,12.0,47,0.00,,---,0.02,VWS V14.01,2013-01-15 00:00:00,
2013-01-14 19:05:00,48.7,29.4,30.20,NW,325,2.0,8.0,47,0.00,,---,0.02,VWS V14.01,2013-01-15 00:05:00,
2013-01-14 19:10:00,48.6,29.3,30.21,NW,324,7.0,10.0,47,0.00,,---,0.02,VWS V14.01,2013-01-15 00:10:00,
2013-01-14 19:15:00,48.5,28.7,30.22,NW,315,5.0,11.0,46,0.00,,---,0.02,VWS V14.01,2013-01-15 00:15:00,
2013-01-14 19:16:00,48.5,28.7,30.22,NW,312,8.0,11.0,46,0.00,,---,0.02,VWS V14.01,2013-01-15 00:16:00,
2013-01-14 19:21:00,48.3,29.0,30.23,NW,325,2.0,9.0,47,0.00,,---,0.02,VWS V14.01,2013-01-15 00:21:00,
2013-01-14 19:26:00,48.1,27.8,30.23,NNW,327,8.0,13.0,45,0.00,,---,0.02,VWS V14.01,2013-01-15 00:26:00,
2013-01-14 19:30:00,48.0,27.1,30.24,North,9,9.0,16.0,44,0.00,,---,0.02,VWS V14.01,2013-01-15 00:30:00,
2013-01-14 19:31:00,48.0,27.7,30.24,North,360,9.0,16.0,45,0.00,,---,0.02,VWS V14.01,2013-01-15 00:31:00,
2013-01-14 19:36:00,47.8,27.5,30.24,NNW,341,9.0,16.0,45,0.00,,---,0.02,VWS V14.01,2013-01-15 00:36:00,
2013-01-14 19:41:00,47.7,27.4,30.24,NNW,343,10.0,17.0,45,0.00,,---,0.02,VWS V14.01,2013-01-15 00:41:00,
2013-01-14 19:45:00,47.5,27.2,30.24,North,355,6.0,17.0,45,0.00,,---,0.02,VWS V14.01,2013-01-15 00:45:00,
2013-01-14 19:46:00,47.5,27.2,30.24,North,5,4.0,6.0,45,0.00,,---,0.02,VWS V14.01,2013-01-15 00:46:00,
2013-01-14 19:51:00,47.3,27.6,30.23,NNW,344,0.0,11.0,46,0.00,,---,0.02,VWS V14.01,2013-01-15 00:51:00,
2013-01-14 19:56:00,47.2,28.0,30.23,NNW,346,4.0,13.0,47,0.00,,---,0.02,VWS V14.01,2013-01-15 00:56:00,
2013-01-14 20:00:00,47.2,27.5,30.23,NNE,18,5.0,13.0,46,0.00,,---,0.02,VWS V14.01,2013-01-15 01:00:00,
2013-01-14 20:01:00,47.1,27.4,30.23,NNE,30,5.0,5.0,46,0.00,,---,0.02,VWS V14.01,2013-01-15 01:01:00,
2013-01-14 20:06:00,47.0,27.8,30.23,ENE,63,9.0,13.0,47,0.00,,---,0.02,VWS V14.01,2013-01-15 01:06:00,
2013-01-14 20:11:00,46.8,28.2,30.23,North,360,12.0,14.0,48,0.00,,---,0.02,VWS V14.01,2013-01-15 01:11:00,
2013-01-14 20:15:00,46.8,28.2,30.24,North,355,8.0,14.0,48,0.00,,---,0.02,VWS V14.01,2013-01-15 01:15:00,
2013-01-14 20:16:00,46.7,27.6,30.24,NE,39,5.0,11.0,47,0.00,,---,0.02,VWS V14.01,2013-01-15 01:16:00,
2013-01-14 20:21:00,46.7,28.1,30.23,NNW,344,6.0,11.0,48,0.00,,---,0.02,VWS V14.01,2013-01-15 01:21:00,
2013-01-14 20:26:00,46.5,29.4,30.24,NNW,346,5.0,11.0,51,0.00,,---,0.02,VWS V14.01,2013-01-15 01:26:00,
2013-01-14 20:30:00,46.3,29.2,30.24,NNE,14,2.0,11.0,51,0.00,,---,0.02,VWS V14.01,2013-01-15 01:30:00,
2013-01-14 20:31:00,46.2,29.1,30.24,NNE,15,2.0,4.0,51,0.00,,---,0.02,VWS V14.01,2013-01-15 01:31:00,
2013-01-14 20:36:00,45.9,29.3,30.24,NW,304,5.0,8.0,52,0.00,,---,0.02,VWS V14.01,2013-01-15 01:36:00,
2013-01-14 20:41:00,45.6,29.9,30.24,North,355,3.0,8.0,54,0.00,,---,0.02,VWS V14.01,2013-01-15 01:41:00,
2013-01-14 20:45:00,45.4,29.7,30.24,NNW,340,5.0,8.0,54,0.00,,---,0.02,VWS V14.01,2013-01-15 01:45:00,
2013-01-14 20:46:00,45.4,29.3,30.24,North,351,4.0,5.0,53,0.00,,---,0.02,VWS V14.01,2013-01-15 01:46:00,
2013-01-14 20:51:00,45.5,28.9,30.24,North,9,0.0,10.0,52,0.00,,---,0.02,VWS V14.01,2013-01-15 01:51:00,
2013-01-14 20:56:00,45.6,28.5,30.24,NNW,340,5.0,14.0,51,0.00,,---,0.02,VWS V14.01,2013-01-15 01:56:00,
2013-01-14 21:00:00,45.5,28.0,30.24,NNE,28,7.0,14.0,50,0.00,,---,0.02,VWS V14.01,2013-01-15 02:00:00,
2013-01-14 21:02:00,45.5,28.0,30.24,NNW,340,11.0,14.0,50,0.00,,---,0.02,VWS V14.01,2013-01-15 02:02:00,
2013-01-14 21:07:00,45.6,27.6,30.24,North,351,4.0,14.0,49,0.00,,---,0.02,VWS V14.01,2013-01-15 02:07:00,
2013-01-14 21:12:00,45.5,28.0,30.24,WNW,294,6.0,14.0,50,0.00,,---,0.02,VWS V14.01,2013-01-15 02:12:00,
2013-01-14 21:15:00,45.4,27.4,30.24,West,280,8.0,14.0,49,0.00,,---,0.02,VWS V14.01,2013-01-15 02:15:00,
2013-01-14 21:17:00,45.4,27.4,30.24,NNE,15,6.0,12.0,49,0.00,,---,0.02,VWS V14.01,2013-01-15 02:17:00,
2013-01-14 21:22:00,45.2,26.7,30.24,NNW,347,6.0,14.0,48,0.00,,---,0.02,VWS V14.01,2013-01-15 02:22:00,
2013-01-14 21:27:00,45.0,26.5,30.25,NNW,340,5.0,14.0,48,0.00,,---,0.02,VWS V14.01,2013-01-15 02:27:00,
2013-01-14 21:30:00,45.0,27.0,30.26,NNW,330,6.0,15.0,49,0.00,,---,0.02,VWS V14.01,2013-01-15 02:30:00,
2013-01-14 21:32:00,45.0,27.0,30.26,NNW,336,5.0,6.0,49,0.00,,---,0.02,VWS V14.01,2013-01-15 02:32:00,
2013-01-14 21:37:00,44.7,27.7,30.26,NNW,341,3.0,8.0,51,0.00,,---,0.02,VWS V14.01,2013-01-15 02:37:00,
2013-01-14 21:42:00,44.5,28.5,30.26,North,360,9.0,10.0,53,0.00,,---,0.02,VWS V14.01,2013-01-15 02:42:00,
2013-01-14 21:45:00,44.1,29.0,30.26,NW,309,9.0,17.0,55,0.00,,---,0.02,VWS V14.01,2013-01-15 02:45:00,
2013-01-14 21:47:00,44.0,28.9,30.26,North,360,4.0,9.0,55,0.00,,---,0.02,VWS V14.01,2013-01-15 02:47:00,
2013-01-14 21:52:00,43.6,29.8,30.25,NNW,335,1.0,10.0,58,0.00,,---,0.02,VWS V14.01,2013-01-15 02:52:00,
2013-01-14 21:57:00,43.0,29.7,30.26,North,360,4.0,17.0,59,0.00,,---,0.02,VWS V14.01,2013-01-15 02:57:00,
2013-01-14 22:00:00,42.7,30.2,30.26,North,5,3.0,17.0,61,0.00,,---,0.02,VWS V14.01,2013-01-15 03:00:00,
2013-01-14 22:02:00,42.6,30.5,30.26,NW,325,9.0,9.0,62,0.00,,---,0.02,VWS V14.01,2013-01-15 03:02:00,
2013-01-14 22:07:00,42.0,30.7,30.26,NNW,333,6.0,12.0,64,0.00,,---,0.02,VWS V14.01,2013-01-15 03:07:00,
2013-01-14 22:12:00,41.6,31.1,30.26,North,11,4.0,12.0,66,0.00,,---,0.02,VWS V14.01,2013-01-15 03:12:00,
2013-01-14 22:15:00,41.4,31.6,30.26,North,360,3.0,12.0,68,0.00,,---,0.02,VWS V14.01,2013-01-15 03:15:00,
2013-01-14 22:17:00,41.2,31.5,30.26,North,5,3.0,8.0,68,0.01,,---,0.03,VWS V14.01,2013-01-15 03:17:00,
2013-01-14 22:22:00,40.7,32.0,30.26,NNE,18,10.0,10.0,71,0.01,,---,0.03,VWS V14.01,2013-01-15 03:22:00,
2013-01-14 22:27:00,40.2,32.2,30.27,NNE,32,0.0,10.0,73,0.02,,---,0.04,VWS V14.01,2013-01-15 03:27:00,
2013-01-14 22:30:00,40.0,32.4,30.27,North,5,4.0,10.0,74,0.02,,---,0.04,VWS V14.01,2013-01-15 03:30:00,
2013-01-14 22:33:00,39.8,32.5,30.27,North,5,4.0,6.0,75,0.03,,---,0.05,VWS V14.01,2013-01-15 03:33:00,
2013-01-14 22:38:00,39.5,32.6,30.27,NNE,33,2.0,6.0,76,0.03,,---,0.05,VWS V14.01,2013-01-15 03:38:00,
2013-01-14 22:43:00,39.3,32.7,30.27,North,5,2.0,6.0,77,0.03,,---,0.05,VWS V14.01,2013-01-15 03:43:00,
2013-01-14 22:45:00,39.3,33.0,30.27,North,5,1.0,6.0,78,0.03,,---,0.05,VWS V14.01,2013-01-15 03:45:00,
2013-01-14 22:48:00,39.3,33.0,30.27,North,11,1.0,6.0,78,0.04,,---,0.06,VWS V14.01,2013-01-15 03:48:00,
2013-01-14 22:53:00,39.2,33.2,30.27,NNE,21,0.0,6.0,79,0.04,,---,0.06,VWS V14.01,2013-01-15 03:53:00,
2013-01-14 22:58:00,39.1,33.2,30.27,NNE,21,2.0,6.0,79,0.04,,---,0.06,VWS V14.01,2013-01-15 03:58:00,
2013-01-14 23:00:00,39.1,33.2,30.27,NNE,22,0.0,6.0,79,0.04,,---,0.06,VWS V14.01,2013-01-15 04:00:00,
2013-01-14 23:03:00,39.1,33.2,30.27,NNE,22,0.0,0.0,79,0.04,,---,0.06,VWS V14.01,2013-01-15 04:03:00,
2013-01-14 23:08:00,38.9,33.3,30.27,NNE,17,0.0,3.0,80,0.04,,---,0.06,VWS V14.01,2013-01-15 04:08:00,
2013-01-14 23:13:00,38.8,33.2,30.28,NNE,17,4.0,4.0,80,0.05,,---,0.07,VWS V14.01,2013-01-15 04:13:00,
2013-01-14 23:15:00,38.8,33.2,30.27,NNE,15,3.0,5.0,80,0.05,,---,0.07,VWS V14.01,2013-01-15 04:15:00,
2013-01-14 23:18:00,38.7,33.1,30.28,NNE,15,2.0,5.0,80,0.05,,---,0.07,VWS V14.01,2013-01-15 04:18:00,
2013-01-14 23:23:00,38.8,33.5,30.28,NNE,16,1.0,5.0,81,0.05,,---,0.07,VWS V14.01,2013-01-15 04:23:00,
2013-01-14 23:28:00,38.7,33.4,30.28,NNE,17,2.0,5.0,81,0.05,,---,0.07,VWS V14.01,2013-01-15 04:28:00,
2013-01-14 23:30:00,38.7,33.4,30.28,North,355,3.0,5.0,81,0.05,,---,0.07,VWS V14.01,2013-01-15 04:30:00,
2013-01-14 23:33:00,38.7,33.4,30.28,NNE,15,5.0,6.0,81,0.03,,---,0.07,VWS V14.01,2013-01-15 04:33:00,
2013-01-14 23:38:00,38.7,33.4,30.28,NNE,14,2.0,6.0,81,0.03,,---,0.07,VWS V14.01,2013-01-15 04:38:00,
2013-01-14 23:43:00,38.6,33.3,30.27,NNE,21,1.0,6.0,81,0.04,,---,0.08,VWS V14.01,2013-01-15 04:43:00,
2013-01-14 23:45:00,38.6,33.3,30.27,North,10,2.0,6.0,81,0.04,,---,0.08,VWS V14.01,2013-01-15 04:45:00,
2013-01-14 23:48:00,38.6,33.3,30.27,NNE,15,0.0,7.0,81,0.03,,---,0.08,VWS V14.01,2013-01-15 04:48:00,
2013-01-14 23:53:00,38.7,33.4,30.27,NNW,344,3.0,7.0,81,0.03,,---,0.08,VWS V14.01,2013-01-15 04:53:00,
2013-01-14 23:58:00,38.6,33.3,30.27,NNW,345,0.0,7.0,81,0.03,,---,0.08,VWS V14.01,2013-01-15 04:58:00,